This is the latest recevied weather packets stored in our database for station/object N3WXO-1. If no packets are shown the sender has not sent any weather packets the latest 10 day(s).
| Time | Temp. | Humidity | Pressure | Rain* | Wind** | Luminosity | Snow |
|---|---|---|---|---|---|---|---|
| 1777589416 | 11.11° C | 84% | 1009.7 hPa | 0.51 mm | - | 5 W/m² | - |
| 1777589132 | 11.67° C | 83% | 1009.5 hPa | 0.51 mm | - | 7 W/m² | - |
| 1777588828 | 12.22° C | 81% | 1009.3 hPa | 0.51 mm | - | 11 W/m² | - |
| 1777588524 | 12.78° C | 78% | 1009.3 hPa | 0.51 mm | - | 9 W/m² | - |
| 1777588222 | 13.33° C | 74% | 1009.2 hPa | 0.25 mm | - | 0 W/m² | - |
| 1777587917 | 13.89° C | 72% | 1008.8 hPa | 0 mm | - | 0 W/m² | - |
| 1777587633 | 13.89° C | 71% | 1008.7 hPa | 0 mm | - | 11 W/m² | - |
| 1777587332 | 14.44° C | 68% | 1008.5 hPa | 0 mm | - | 16 W/m² | - |
| 1777587029 | 14.44° C | 68% | 1008.5 hPa | 0 mm | - | 14 W/m² | - |
| 1777586724 | 14.44° C | 67% | 1008.3 hPa | 0 mm | - | 14 W/m² | - |
| 1777586419 | 14.44° C | 65% | 1008.2 hPa | 0 mm | - | 14 W/m² | - |
| 1777586116 | 15° C | 64% | 1008.2 hPa | 0 mm | - | 18 W/m² | - |
| 1777585832 | 15° C | 63% | 1008.1 hPa | 0 mm | - | 16 W/m² | - |
| 1777585530 | 15° C | 64% | 1008.1 hPa | 0 mm | - | 18 W/m² | - |
| 1777585229 | 15.56° C | 64% | 1008.1 hPa | 0 mm | - | 21 W/m² | - |
| 1777584926 | 15.56° C | 65% | 1008 hPa | 0 mm | - | 40 W/m² | - |
| 1777584622 | 15.56° C | 65% | 1008 hPa | 0 mm | - | 63 W/m² | - |
| 1777584319 | 15.56° C | 64% | 1007.9 hPa | 0 mm | - | 72 W/m² | - |
| 1777584015 | 15.56° C | 65% | 1007.8 hPa | 0 mm | - | 74 W/m² | - |
| 1777583731 | 15° C | 66% | 1007.8 hPa | 0 mm | - | 91 W/m² | - |
| 1777583429 | 15° C | 65% | 1007.8 hPa | 0 mm | - | 111 W/m² | - |
| 1777583128 | 15° C | 64% | 1007.8 hPa | 0 mm | - | 116 W/m² | - |
| 1777582825 | 15° C | 62% | 1007.8 hPa | 0 mm | - | 107 W/m² | - |
| 1777582521 | 15° C | 66% | 1007.7 hPa | 0 mm | - | 105 W/m² | - |
| 1777582218 | 15° C | 66% | 1007.7 hPa | 0 mm | - | 97 W/m² | - |
* Rain latest hour (hover to see other rain measurements)
** Current wind speed in m/s (hover to see current wind gust speed)